»·PEaware :: USC81 KLAS-KLOL

USC81 :: KLAS-KLOL

FLIGHT INFORMATION

Flight Status: Arrived
Operator: Unknown
More flights by this operator :: More flights under this callsign
Pilot: Andy P. (22680)
Aircraft: GATES LEARJET LEARJET 35/36
(LJ35)
More flights by this aircraft type
Origin: KLAS McCarran Intl
United States
Destination: KLOL Derby
United States
More flights between these airports :: More routes between these airports
Route: SHEAD1 OAL HZN
File this flight plan on PilotEdge
Remarks:
Altitude:
(Current/Filed)
36,000ft
Speed:
(Current/Filed)
465kts
Departed: 09-Feb-20 01:12 PM
Arrived: 09-Feb-20 02:12 PM
Distance/Time
Traveled:
289nm/1:00
Distance/Time
To Go:
Arrived

Flight Plot

Page will automatically refresh every two minutes.

Flight plan parsing failed; only flown route is shown


Map Options




Map Legend


Flown Route
Filed Route
Departure Airport
Arrival Airport
Navaid (VOR, NDB)
Fix

Horizontal Profiles

Position Reports

Time Latitude Longitude Heading Altitude Ground
Speed
09-Feb-20 12:26 36.081229 -115.170227 269 2184ft 0kts
09-Feb-20 12:27 36.081229 -115.170227 269 2184ft 0kts
09-Feb-20 12:28 36.081229 -115.170227 269 2184ft 0kts
09-Feb-20 12:29 36.081229 -115.170227 269 2184ft 0kts
09-Feb-20 12:37 36.082058 -115.170657 269 2183ft 0kts
09-Feb-20 12:38 36.082058 -115.170657 269 2183ft 0kts
09-Feb-20 12:38 36.082058 -115.170657 269 2183ft 0kts
09-Feb-20 12:39 36.082058 -115.170657 269 2183ft 0kts
09-Feb-20 12:41 36.082058 -115.170657 269 2183ft 0kts
09-Feb-20 12:42 36.082058 -115.170657 269 2183ft 0kts
09-Feb-20 12:42 36.082058 -115.170657 269 2184ft 0kts
09-Feb-20 12:43 36.082058 -115.170657 269 2184ft 0kts
09-Feb-20 12:46 36.082058 -115.170657 269 2184ft 0kts
09-Feb-20 12:47 36.082058 -115.170657 269 2184ft 0kts
09-Feb-20 12:48 36.082058 -115.170657 269 2184ft 0kts
09-Feb-20 12:49 36.082058 -115.170657 269 2184ft 0kts
09-Feb-20 12:50 36.082058 -115.170657 269 2184ft 0kts
09-Feb-20 12:51 36.082058 -115.170657 269 2184ft 0kts
09-Feb-20 12:52 36.082058 -115.170657 269 2184ft 0kts
09-Feb-20 12:53 36.082058 -115.170657 269 2184ft 0kts
09-Feb-20 12:54 36.082058 -115.170657 269 2184ft 0kts
09-Feb-20 12:55 36.082058 -115.170657 269 2184ft 0kts
09-Feb-20 12:56 36.082058 -115.170657 269 2184ft 0kts
09-Feb-20 12:57 36.082058 -115.170657 269 2184ft 0kts
09-Feb-20 12:58 36.082058 -115.170657 269 2184ft 0kts
09-Feb-20 12:59 36.082058 -115.170657 269 2184ft 0kts
09-Feb-20 13:00 36.082058 -115.170657 269 2184ft 0kts
09-Feb-20 13:01 36.082058 -115.170657 269 2184ft 0kts
09-Feb-20 13:02 36.082058 -115.170657 269 2184ft 0kts
09-Feb-20 13:03 36.082058 -115.170657 269 2184ft 0kts
09-Feb-20 13:04 36.082049 -115.170729 250 2184ft 3kts
09-Feb-20 13:05 36.081485 -115.170159 90 2184ft 0kts
09-Feb-20 13:06 36.080593 -115.169837 201 2184ft 13kts
09-Feb-20 13:07 36.078245 -115.170136 116 2184ft 0kts
09-Feb-20 13:08 36.078244 -115.170134 116 2184ft 0kts
09-Feb-20 13:09 36.078241 -115.170127 116 2184ft 0kts
09-Feb-20 13:10 36.078240 -115.170124 116 2184ft 0kts
09-Feb-20 13:11 36.082981 -115.166026 25 2184ft 112kts
09-Feb-20 13:12 36.127808 -115.158160 312 4270ft 203kts
09-Feb-20 13:13 36.120992 -115.227173 257 6284ft 219kts
09-Feb-20 13:14 36.097112 -115.297744 211 7968ft 241kts
09-Feb-20 13:15 36.030562 -115.328736 200 8930ft 272kts
09-Feb-20 13:16 35.962390 -115.365140 203 9001ft 266kts
09-Feb-20 13:17 35.898404 -115.411276 234 8999ft 274kts
09-Feb-20 13:18 35.888151 -115.503840 270 10252ft 301kts
09-Feb-20 13:19 35.889904 -115.617973 270 10991ft 363kts
09-Feb-20 13:20 35.892093 -115.743637 269 12337ft 383kts
09-Feb-20 13:21 35.894260 -115.874847 266 16116ft 373kts
09-Feb-20 13:22 35.913239 -115.994575 301 20098ft 371kts
09-Feb-20 13:23 35.986729 -116.076593 305 24064ft 334kts
09-Feb-20 13:24 36.048892 -116.147132 303 27997ft 269kts
09-Feb-20 13:25 36.094304 -116.199451 301 31030ft 197kts
09-Feb-20 13:26 36.138065 -116.250477 306 31963ft 236kts
09-Feb-20 13:27 36.190726 -116.311480 308 32985ft 281kts
09-Feb-20 13:28 36.252448 -116.383079 310 33923ft 326kts
09-Feb-20 13:29 36.322635 -116.464694 312 34846ft 365kts
09-Feb-20 13:30 36.399517 -116.554338 312 35752ft 390kts
09-Feb-20 13:31 36.481726 -116.650508 313 35988ft 419kts
09-Feb-20 13:32 36.569251 -116.751629 319 35989ft 443kts
09-Feb-20 13:33 36.676460 -116.833498 325 35995ft 453kts
09-Feb-20 13:34 36.783453 -116.914810 325 36000ft 448kts
09-Feb-20 13:35 36.889544 -116.995804 325 36008ft 445kts
09-Feb-20 13:36 36.994825 -117.076456 325 36015ft 443kts
09-Feb-20 13:37 37.099759 -117.157108 326 36042ft 441kts
09-Feb-20 13:38 37.204373 -117.237811 326 36042ft 441kts
09-Feb-20 13:39 37.308723 -117.318440 327 36047ft 440kts
09-Feb-20 13:40 37.418150 -117.388439 331 36073ft 440kts
09-Feb-20 13:41 37.527142 -117.458751 331 36075ft 440kts
09-Feb-20 13:42 37.635990 -117.529594 331 36076ft 439kts
09-Feb-20 13:43 37.744624 -117.600576 331 36076ft 439kts
09-Feb-20 13:44 37.853011 -117.671636 331 36076ft 439kts
09-Feb-20 13:45 37.961269 -117.742853 331 36076ft 438kts
09-Feb-20 13:46 38.067644 -117.819004 326 36084ft 437kts
09-Feb-20 13:47 38.169836 -117.902175 327 36094ft 437kts
09-Feb-20 13:48 38.273002 -117.984479 327 35889ft 435kts
09-Feb-20 13:49 38.373933 -118.065239 327 33775ft 440kts
09-Feb-20 13:50 38.479682 -118.150258 328 31920ft 447kts
09-Feb-20 13:51 38.582862 -118.233329 329 30094ft 434kts
09-Feb-20 13:52 38.685444 -118.316154 330 28293ft 439kts
09-Feb-20 13:53 38.789191 -118.400217 331 26468ft 444kts
09-Feb-20 13:54 38.893814 -118.485296 332 24621ft 446kts
09-Feb-20 13:55 38.997144 -118.569608 334 22696ft 431kts
09-Feb-20 13:56 39.102631 -118.606521 355 20677ft 379kts
09-Feb-20 13:57 39.207915 -118.633151 354 19040ft 368kts
09-Feb-20 13:58 39.305790 -118.658983 354 17448ft 377kts
09-Feb-20 13:59 39.409430 -118.686872 353 15680ft 364kts
09-Feb-20 14:00 39.508032 -118.713402 353 14098ft 361kts
09-Feb-20 14:01 39.606768 -118.740023 353 12626ft 363kts
09-Feb-20 14:02 39.706335 -118.766983 351 11147ft 369kts
09-Feb-20 14:03 39.786970 -118.789005 353 9911ft 245kts
09-Feb-20 14:04 39.856028 -118.776366 17 8257ft 263kts
09-Feb-20 14:05 39.919129 -118.754196 22 7177ft 210kts
09-Feb-20 14:06 39.956145 -118.702295 61 6224ft 198kts
09-Feb-20 14:07 39.984148 -118.650498 28 5862ft 160kts
09-Feb-20 14:08 40.013979 -118.622257 39 4993ft 112kts
09-Feb-20 14:09 40.038138 -118.596220 44 4410ft 113kts
09-Feb-20 14:10 40.062755 -118.572192 27 3914ft 97kts
09-Feb-20 14:11 40.069935 -118.569285 305 3907ft 11kts
09-Feb-20 14:12 40.070029 -118.569461 305 3907ft 0kts
09-Feb-20 14:13 40.070029 -118.569461 305 3907ft 0kts
09-Feb-20 14:14 40.070029 -118.569461 305 3907ft 0kts
09-Feb-20 14:15 40.070029 -118.569461 305 3907ft 0kts
09-Feb-20 14:16 40.070029 -118.569461 305 3907ft 0kts
09-Feb-20 14:17 40.070029 -118.569461 305 3907ft 0kts
09-Feb-20 14:18 40.070029 -118.569461 305 3907ft 0kts
09-Feb-20 14:19 40.070029 -118.569461 305 3907ft 0kts
09-Feb-20 14:20 40.070029 -118.569461 305 3907ft 0kts
09-Feb-20 14:21 40.070029 -118.569461 305 3907ft 0kts
09-Feb-20 14:22 40.070029 -118.569461 305 3907ft 0kts
09-Feb-20 14:23 40.070029 -118.569461 305 3907ft 0kts
09-Feb-20 14:24 40.070029 -118.569461 305 3907ft 0kts
09-Feb-20 14:25 40.070029 -118.569461 305 3907ft 0kts

Navigation Log

Ident Type
Flight plan parsing failed, navigation log unavailable